Time;durP1;ratioP1;P1;durP2;ratioP2;P2;SDS_P1;SDS_P2;PMS_P1;PMS_P2;Temp;Humidity;BMP_temperature;BMP_pressure;BME280_temperature;BME280_humidity;BME280_pressure;Samples;Min_cycle;Max_cycle;Signal;HPM_P1;HPM_P2
2021/07/09 00:00:46;;;;;;;4.70;4.40;;;;;;;17.36;100.00;99247.03;10538159;28;20206;-82
2021/07/09 00:06:05;;;;;;;4.73;4.33;;;;;;;17.33;100.00;99245.91;10522025;28;20182;-81
2021/07/09 00:11:24;;;;;;;6.53;4.50;;;;;;;17.32;100.00;99240.78;10538131;28;20205;-82
2021/07/09 00:16:45;;;;;;;5.37;4.60;;;;;;;17.29;100.00;99233.31;10522841;28;20173;-81
2021/07/09 00:22:04;;;;;;;5.50;4.93;;;;;;;17.23;100.00;99244.16;10521770;28;20676;-81
2021/07/09 00:27:23;;;;;;;6.00;4.90;;;;;;;17.16;100.00;99238.81;10522820;28;20178;-81
2021/07/09 00:32:42;;;;;;;8.43;5.33;;;;;;;17.16;100.00;99230.47;10521647;28;20610;-82
2021/07/09 00:38:01;;;;;;;8.23;5.67;;;;;;;17.10;100.00;99217.53;10539393;28;20225;-82
2021/07/09 00:43:20;;;;;;;6.80;5.20;;;;;;;16.94;100.00;99217.56;10545495;28;20174;-82
2021/07/09 00:48:39;;;;;;;6.70;6.10;;;;;;;17.03;100.00;99228.84;10544789;28;20201;-80
2021/07/09 00:53:58;;;;;;;6.90;6.27;;;;;;;17.01;100.00;99226.50;10545080;28;20181;-81
2021/07/09 00:59:22;;;;;;;6.43;6.03;;;;;;;16.90;100.00;99225.25;10529452;28;20174;-81
2021/07/09 01:04:42;;;;;;;6.63;6.10;;;;;;;16.88;100.00;99227.66;10542927;28;20588;-80
2021/07/09 01:10:02;;;;;;;6.83;6.23;;;;;;;16.92;100.00;99212.47;10544084;28;20213;-79
2021/07/09 01:15:22;;;;;;;13.30;7.17;;;;;;;16.81;100.00;99211.97;10544147;28;20174;-81
2021/07/09 01:20:42;;;;;;;7.73;6.77;;;;;;;16.83;100.00;99208.75;10542828;28;20175;-81
2021/07/09 01:26:01;;;;;;;8.57;7.80;;;;;;;16.89;100.00;99213.31;10543375;28;20186;-81
2021/07/09 01:31:21;;;;;;;8.57;7.77;;;;;;;16.90;100.00;99203.78;10515416;28;20218;-82
2021/07/09 01:36:40;;;;;;;9.50;8.07;;;;;;;16.91;100.00;99199.03;10499559;28;20214;-81
2021/07/09 01:41:59;;;;;;;11.47;8.60;;;;;;;16.69;100.00;99197.25;10502390;28;20615;-81
2021/07/09 01:47:19;;;;;;;9.27;8.27;;;;;;;16.81;100.00;99194.53;10500237;28;20171;-81
2021/07/09 01:52:38;;;;;;;9.23;8.40;;;;;;;16.81;100.00;99192.50;10498932;28;20218;-81
2021/07/09 01:57:57;;;;;;;10.40;9.47;;;;;;;16.84;100.00;99185.28;10485524;28;20178;-81
2021/07/09 02:03:17;;;;;;;10.77;9.77;;;;;;;16.70;100.00;99184.91;10528042;28;20186;-83
2021/07/09 02:08:35;;;;;;;12.87;10.00;;;;;;;16.72;100.00;99186.03;10540337;28;20205;-82
2021/07/09 02:13:54;;;;;;;11.93;10.90;;;;;;;16.70;100.00;99179.34;10525778;28;20170;-82
2021/07/09 02:19:13;;;;;;;12.60;11.40;;;;;;;16.64;100.00;99179.09;10539286;28;20219;-83
2021/07/09 02:24:34;;;;;;;11.73;10.60;;;;;;;16.79;100.00;99167.19;10525673;28;20257;-82
2021/07/09 02:29:53;;;;;;;11.20;9.93;;;;;;;16.78;100.00;99168.41;10524780;28;20213;-83
2021/07/09 02:35:16;;;;;;;13.20;10.73;;;;;;;16.71;100.00;99167.03;10497297;28;20226;-83
2021/07/09 02:40:35;;;;;;;11.57;10.57;;;;;;;16.76;100.00;99163.72;10482522;28;20649;-81
2021/07/09 02:45:55;;;;;;;11.90;10.70;;;;;;;16.76;100.00;99158.91;10497956;28;20202;-82
2021/07/09 02:51:14;;;;;;;11.43;10.33;;;;;;;16.67;100.00;99163.56;10481108;28;20198;-82
2021/07/09 02:56:32;;;;;;;13.93;10.20;;;;;;;16.73;100.00;99153.47;10497659;28;20197;-81
2021/07/09 03:01:51;;;;;;;11.23;9.93;;;;;;;16.77;100.00;99150.16;10514623;28;20178;-79
2021/07/09 03:07:10;;;;;;;13.30;9.97;;;;;;;16.77;100.00;99143.03;10538110;28;20801;-80
2021/07/09 03:12:29;;;;;;;11.93;9.37;;;;;;;16.68;100.00;99151.22;10538861;28;20205;-79
2021/07/09 03:17:48;;;;;;;10.67;9.67;;;;;;;16.61;100.00;99152.19;10524001;28;20177;-78
2021/07/09 03:23:07;;;;;;;11.43;9.50;;;;;;;16.60;100.00;99156.19;10537970;28;20178;-80
2021/07/09 03:28:27;;;;;;;9.33;8.40;;;;;;;16.54;100.00;99146.81;10523835;28;20170;-81
2021/07/09 03:33:46;;;;;;;16.37;9.63;;;;;;;16.48;100.00;99147.78;10531867;28;20222;-79
2021/07/09 03:39:05;;;;;;;10.13;9.07;;;;;;;16.34;100.00;99153.72;10496665;28;20178;-79
2021/07/09 03:44:24;;;;;;;12.27;8.63;;;;;;;16.44;100.00;99164.53;10496537;28;20179;-78
2021/07/09 03:49:43;;;;;;;17.37;8.87;;;;;;;16.44;100.00;99164.53;10479784;28;20623;-78
2021/07/09 03:55:04;;;;;;;13.00;8.73;;;;;;;16.42;100.00;99166.19;10496547;28;20239;-78
2021/07/09 04:00:24;;;;;;;9.70;8.80;;;;;;;16.30;100.00;99161.38;10480194;28;20186;-78
2021/07/09 04:05:42;;;;;;;12.07;8.53;;;;;;;16.38;100.00;99154.41;10494417;28;20210;-78
2021/07/09 04:11:01;;;;;;;8.73;7.93;;;;;;;16.33;100.00;99152.94;10496061;28;20680;-78
2021/07/09 04:16:20;;;;;;;8.47;7.80;;;;;;;16.30;100.00;99167.69;10489128;28;20546;-79
2021/07/09 04:21:39;;;;;;;11.73;9.67;;;;;;;16.33;100.00;99175.16;10487281;28;20643;-79
2021/07/09 04:26:59;;;;;;;10.80;8.33;;;;;;;16.22;100.00;99179.38;10503920;28;20171;-78
2021/07/09 04:32:17;;;;;;;9.43;8.50;;;;;;;16.29;100.00;99185.56;10502678;28;20222;-78
2021/07/09 04:37:36;;;;;;;12.10;9.17;;;;;;;16.32;100.00;99197.78;10484036;28;20696;-78
2021/07/09 04:42:55;;;;;;;9.50;8.60;;;;;;;16.34;100.00;99203.69;10501617;28;20186;-78
2021/07/09 04:48:14;;;;;;;9.60;8.63;;;;;;;16.25;100.00;99195.16;10503122;28;20179;-79
2021/07/09 04:53:33;;;;;;;10.17;9.27;;;;;;;16.30;100.00;99197.47;10486507;28;20194;-79
2021/07/09 04:58:52;;;;;;;10.37;9.50;;;;;;;16.25;100.00;99200.72;10502375;28;20218;-78
2021/07/09 05:04:11;;;;;;;9.30;8.50;;;;;;;16.14;100.00;99200.97;10501558;28;20198;-78
2021/07/09 05:09:30;;;;;;;9.60;8.70;;;;;;;16.18;100.00;99198.91;10502312;28;20210;-78
2021/07/09 05:14:49;;;;;;;9.63;8.53;;;;;;;16.19;100.00;99208.78;10445998;28;20179;-78
2021/07/09 05:20:09;;;;;;;10.30;9.37;;;;;;;16.23;100.00;99214.25;10459590;28;20175;-78
2021/07/09 05:25:29;;;;;;;10.90;9.90;;;;;;;16.12;100.00;99216.50;10460261;28;20250;-78
2021/07/09 05:30:47;;;;;;;9.93;9.03;;;;;;;16.16;100.00;99225.50;10444803;28;20219;-78
2021/07/09 05:36:06;;;;;;;10.67;9.73;;;;;;;16.15;100.00;99218.44;10443186;28;20231;-78
2021/07/09 05:41:25;;;;;;;12.73;10.13;;;;;;;16.17;100.00;99230.66;10500805;28;20262;-78
2021/07/09 05:46:46;;;;;;;9.53;8.53;;;;;;;16.14;100.00;99228.72;10485708;28;20171;-79
2021/07/09 05:52:06;;;;;;;9.63;8.73;;;;;;;16.09;100.00;99231.22;10499162;28;20271;-78
2021/07/09 05:57:25;;;;;;;8.13;7.53;;;;;;;16.08;100.00;99233.25;10500869;28;20616;-80
2021/07/09 06:02:49;;;;;;;7.07;6.57;;;;;;;16.04;100.00;99226.22;10500520;28;20175;-78
2021/07/09 06:08:09;;;;;;;5.73;5.17;;;;;;;16.08;100.00;99232.44;10498825;28;20199;-80
2021/07/09 06:13:30;;;;;;;5.13;4.73;;;;;;;16.07;100.00;99251.09;10484754;28;20179;-80
2021/07/09 06:18:50;;;;;;;5.63;5.33;;;;;;;16.13;100.00;99246.59;10483109;28;20195;-77
2021/07/09 06:24:09;;;;;;;5.67;5.27;;;;;;;16.14;100.00;99255.72;10484361;28;20175;-77
2021/07/09 06:29:28;;;;;;;8.10;7.60;;;;;;;16.16;100.00;99254.06;10499743;28;20676;-79
2021/07/09 06:34:48;;;;;;;11.50;10.50;;;;;;;16.16;100.00;99261.59;10481798;28;20740;-79
2021/07/09 06:40:09;;;;;;;11.80;10.80;;;;;;;16.15;100.00;99265.59;10498725;28;20194;-80
2021/07/09 06:45:28;;;;;;;13.10;11.97;;;;;;;16.12;100.00;99261.69;10498767;28;20567;-79
2021/07/09 06:50:47;;;;;;;14.37;13.07;;;;;;;16.07;100.00;99272.53;10481773;28;20199;-78
2021/07/09 06:56:06;;;;;;;14.23;12.73;;;;;;;16.10;100.00;99274.44;10483249;28;20174;-79
2021/07/09 07:01:25;;;;;;;14.23;12.80;;;;;;;16.12;100.00;99285.88;10482798;28;20175;-79
2021/07/09 07:06:43;;;;;;;11.37;10.37;;;;;;;16.12;100.00;99272.00;10496325;28;20574;-79
2021/07/09 07:12:04;;;;;;;10.87;9.97;;;;;;;16.08;100.00;99268.53;10481876;28;20206;-79
2021/07/09 07:17:23;;;;;;;8.70;8.10;;;;;;;16.03;100.00;99269.81;10482639;28;20175;-80
2021/07/09 07:22:42;;;;;;;8.77;8.07;;;;;;;16.05;100.00;99277.72;10464932;28;20174;-78
2021/07/09 07:28:02;;;;;;;7.70;7.20;;;;;;;16.03;100.00;99280.91;10497406;28;20846;-80
2021/07/09 07:33:21;;;;;;;7.60;7.10;;;;;;;16.07;100.00;99300.28;10496103;28;20206;-77
2021/07/09 07:38:40;;;;;;;6.60;6.20;;;;;;;16.11;100.00;99310.06;10478619;28;20233;-77
2021/07/09 07:44:00;;;;;;;7.87;7.30;;;;;;;16.26;100.00;99311.34;10474959;28;20183;-77
2021/07/09 07:49:21;;;;;;;7.43;6.70;;;;;;;16.31;100.00;99316.41;10506651;28;20202;-77
2021/07/09 07:54:40;;;;;;;6.60;6.10;;;;;;;16.29;100.00;99320.81;10468822;28;20191;-75
2021/07/09 07:59:59;;;;;;;6.53;5.90;;;;;;;16.34;100.00;99331.41;10463409;28;20199;-76
2021/07/09 08:05:18;;;;;;;5.00;4.70;;;;;;;16.38;100.00;99330.13;10462123;28;20630;-77
2021/07/09 08:10:37;;;;;;;4.93;4.60;;;;;;;16.28;100.00;99335.88;10447758;28;20239;-76
2021/07/09 08:15:56;;;;;;;4.77;4.47;;;;;;;16.25;100.00;99334.75;10463143;28;20171;-77
2021/07/09 08:21:15;;;;;;;4.80;4.50;;;;;;;16.41;100.00;99336.78;10464458;28;20187;-76
2021/07/09 08:26:34;;;;;;;3.90;3.70;;;;;;;16.32;100.00;99339.38;10488460;28;20261;-78
2021/07/09 08:31:54;;;;;;;4.47;4.17;;;;;;;16.40;100.00;99343.56;10502942;28;20214;-75
2021/07/09 08:37:13;;;;;;;5.80;3.70;;;;;;;16.35;100.00;99350.44;10518554;28;20209;-76
2021/07/09 08:42:32;;;;;;;4.00;3.70;;;;;;;16.33;100.00;99352.84;10530272;28;20178;-76
2021/07/09 08:47:53;;;;;;;3.73;3.43;;;;;;;16.51;100.00;99349.66;10529246;28;20185;-75
2021/07/09 08:53:12;;;;;;;4.37;4.07;;;;;;;16.47;100.00;99357.31;10525423;28;20206;-76
2021/07/09 08:58:32;;;;;;;8.73;4.80;;;;;;;16.55;100.00;99359.47;10544268;28;20170;-76
2021/07/09 09:04:03;;;;;;;5.90;5.50;;;;;;;16.44;100.00;99363.72;10543368;28;20173;-76
2021/07/09 09:09:23;;;;;;;5.20;4.90;;;;;;;16.46;100.00;99377.97;10529075;28;20202;-76
2021/07/09 09:14:44;;;;;;;5.10;4.80;;;;;;;16.36;100.00;99368.63;10544404;28;20162;-76
2021/07/09 09:20:10;;;;;;;5.50;5.20;;;;;;;16.43;100.00;99373.25;10542478;28;20538;-77
2021/07/09 09:25:32;;;;;;;5.33;4.87;;;;;;;16.51;100.00;99372.69;10527689;28;20194;-77
2021/07/09 09:30:54;;;;;;;6.03;5.53;;;;;;;16.61;100.00;99368.09;10543215;28;20209;-77
2021/07/09 09:36:13;;;;;;;5.40;5.10;;;;;;;16.74;100.00;99361.41;10526301;28;20214;-76
2021/07/09 09:41:32;;;;;;;5.50;5.17;;;;;;;16.96;100.00;99354.88;10528110;28;20178;-76
2021/07/09 09:47:10;;;;;;;6.00;5.43;;;;;;;16.78;100.00;99362.09;10542969;28;20624;-76
2021/07/09 09:52:38;;;;;;;6.57;5.83;;;;;;;16.94;100.00;99354.56;10525310;28;20213;-76
2021/07/09 09:58:14;;;;;;;5.47;5.07;;;;;;;16.93;100.00;99347.44;10504881;28;20545;-77
2021/07/09 10:03:33;;;;;;;5.83;5.50;;;;;;;16.92;100.00;99347.88;10542213;28;20700;-78
2021/07/09 10:08:53;;;;;;;6.47;5.93;;;;;;;16.90;100.00;99350.31;10525330;28;20194;-77
2021/07/09 10:14:14;;;;;;;6.33;5.93;;;;;;;16.98;100.00;99352.47;10526140;28;20178;-79
2021/07/09 10:19:38;;;;;;;7.63;7.00;;;;;;;17.02;100.00;99358.72;10540069;28;20174;-77
2021/07/09 10:25:00;;;;;;;6.03;5.63;;;;;;;17.04;100.00;99356.25;10525833;28;20572;-77
2021/07/09 10:30:20;;;;;;;6.67;6.17;;;;;;;17.16;100.00;99352.78;10525326;28;20210;-77
2021/07/09 10:35:41;;;;;;;7.67;7.07;;;;;;;17.14;100.00;99358.00;10539307;28;20233;-77
2021/07/09 10:41:19;;;;;;;8.57;7.97;;;;;;;17.31;100.00;99351.22;10539687;28;20181;-78
2021/07/09 10:46:38;;;;;;;8.13;7.60;;;;;;;17.39;100.00;99352.59;10523690;28;20182;-78
2021/07/09 10:51:57;;;;;;;8.60;7.90;;;;;;;17.47;100.00;99353.97;10523051;28;20661;-78
2021/07/09 10:57:21;;;;;;;9.37;8.60;;;;;;;17.47;100.00;99353.97;10503516;28;20705;-79
2021/07/09 11:03:02;;;;;;;10.93;9.07;;;;;;;17.63;100.00;99365.06;10483249;28;20258;-79
2021/07/09 11:08:31;;;;;;;8.57;7.87;;;;;;;17.66;100.00;99367.75;10481630;28;20175;-79
2021/07/09 11:13:53;;;;;;;8.60;7.80;;;;;;;17.63;100.00;99379.78;10497934;28;20191;-79
2021/07/09 11:19:16;;;;;;;7.97;7.37;;;;;;;17.59;100.00;99383.88;10496678;28;20538;-80
2021/07/09 11:24:41;;;;;;;7.60;7.00;;;;;;;17.58;100.00;99382.31;10502908;28;20178;-79
2021/07/09 11:30:01;;;;;;;6.87;6.43;;;;;;;17.37;100.00;99382.84;10523641;28;20288;-79
2021/07/09 11:35:20;;;;;;;7.93;7.43;;;;;;;17.40;100.00;99384.75;10537420;28;20225;-80
2021/07/09 11:40:39;;;;;;;9.80;9.00;;;;;;;17.30;100.00;99390.59;10538732;28;20174;-79
2021/07/09 11:46:06;;;;;;;8.90;8.10;;;;;;;17.34;100.00;99389.31;10523296;28;20263;-78
2021/07/09 11:51:26;;;;;;;10.10;9.17;;;;;;;17.26;100.00;99387.88;10514518;28;20218;-77
2021/07/09 11:56:44;;;;;;;11.60;10.63;;;;;;;17.33;100.00;99393.28;10497012;28;20175;-77
2021/07/09 12:02:13;;;;;;;15.93;11.53;;;;;;;17.39;100.00;99401.91;10481587;28;20182;-77
2021/07/09 12:07:36;;;;;;;12.83;11.63;;;;;;;17.36;100.00;99406.34;10518598;28;20260;-78
2021/07/09 12:13:03;;;;;;;17.60;14.37;;;;;;;17.14;100.00;99408.03;10538089;28;20210;-77
2021/07/09 12:18:22;;;;;;;16.87;13.50;;;;;;;17.05;100.00;99407.88;10538384;28;20534;-76
2021/07/09 12:23:41;;;;;;;16.97;15.27;;;;;;;17.07;100.00;99404.69;10521957;28;20181;-75
2021/07/09 12:29:00;;;;;;;16.20;14.50;;;;;;;16.94;100.00;99396.25;10538002;28;20293;-75
2021/07/09 12:34:22;;;;;;;18.33;15.97;;;;;;;16.87;100.00;99403.97;10540420;28;20296;-76
2021/07/09 12:39:41;;;;;;;25.03;18.33;;;;;;;16.87;100.00;99399.19;10530207;28;20215;-75
2021/07/09 12:45:00;;;;;;;20.47;18.30;;;;;;;16.87;100.00;99410.31;10544946;28;20186;-77
2021/07/09 12:50:22;;;;;;;19.10;17.17;;;;;;;17.11;100.00;99414.50;10543706;28;20592;-76
2021/07/09 12:55:43;;;;;;;15.60;14.20;;;;;;;17.12;100.00;99409.69;10545069;28;20186;-76
2021/07/09 13:01:09;;;;;;;16.37;14.87;;;;;;;17.19;100.00;99401.97;10544995;28;20190;-78
2021/07/09 13:06:32;;;;;;;16.43;14.70;;;;;;;17.24;100.00;99406.22;10543465;28;20181;-77
2021/07/09 13:11:51;;;;;;;19.87;16.33;;;;;;;17.38;100.00;99405.91;10528477;28;20209;-76
2021/07/09 13:17:16;;;;;;;17.30;15.60;;;;;;;17.45;100.00;99400.91;10544101;28;20174;-78
2021/07/09 13:22:38;;;;;;;19.20;12.80;;;;;;;17.31;100.00;99412.41;10542734;28;20167;-77
2021/07/09 13:28:02;;;;;;;11.43;10.43;;;;;;;16.88;100.00;99425.75;10543527;28;20193;-76
2021/07/09 13:33:21;;;;;;;12.93;10.43;;;;;;;16.98;100.00;99426.72;10527288;28;20213;-78
2021/07/09 13:38:42;;;;;;;10.67;9.63;;;;;;;17.18;100.00;99431.00;10523922;28;20246;-77
2021/07/09 13:44:01;;;;;;;10.03;9.23;;;;;;;17.56;100.00;99429.25;10542807;28;20181;-78
2021/07/09 13:49:20;;;;;;;9.57;8.77;;;;;;;17.67;100.00;99435.31;10520326;28;20205;-78
2021/07/09 13:54:39;;;;;;;8.93;8.20;;;;;;;17.84;100.00;99437.63;10542527;28;20178;-80
2021/07/09 13:59:57;;;;;;;9.80;9.10;;;;;;;18.10;100.00;99433.72;10542523;28;20174;-79
2021/07/09 14:05:16;;;;;;;9.07;8.27;;;;;;;18.36;100.00;99431.78;10540997;28;20174;-79
2021/07/09 14:10:35;;;;;;;7.87;7.20;;;;;;;18.36;100.00;99434.59;10525768;28;20218;-79
2021/07/09 14:15:54;;;;;;;7.93;7.20;;;;;;;18.37;100.00;99439.72;10499880;28;20191;-80
2021/07/09 14:21:14;;;;;;;7.67;7.10;;;;;;;18.43;100.00;99451.88;10483003;28;20179;-81
2021/07/09 14:26:33;;;;;;;7.17;6.60;;;;;;;18.30;100.00;99451.06;10484428;28;20285;-80
2021/07/09 14:31:53;;;;;;;6.70;6.20;;;;;;;18.19;100.00;99452.56;10498890;28;20202;-81
2021/07/09 14:37:13;;;;;;;8.07;6.77;;;;;;;18.27;100.00;99451.16;10497361;28;20218;-81
2021/07/09 14:42:33;;;;;;;7.57;7.07;;;;;;;17.83;100.00;99455.53;10496797;28;20209;-81
2021/07/09 14:47:53;;;;;;;7.27;6.53;;;;;;;17.82;100.00;99464.34;10539613;28;20177;-81
2021/07/09 14:53:14;;;;;;;7.37;6.77;;;;;;;17.62;100.00;99467.25;10538170;28;20236;-81
2021/07/09 14:58:33;;;;;;;8.77;8.17;;;;;;;17.69;100.00;99469.03;10539898;28;20632;-82
2021/07/09 15:03:51;;;;;;;8.90;8.03;;;;;;;17.87;100.00;99464.59;10538997;28;20186;-82
2021/07/09 15:09:10;;;;;;;7.70;7.20;;;;;;;17.90;100.00;99460.91;10524653;28;20237;-82
2021/07/09 15:14:29;;;;;;;10.73;7.90;;;;;;;17.94;100.00;99458.81;10524106;28;20182;-82
2021/07/09 15:19:49;;;;;;;8.90;8.10;;;;;;;17.85;100.00;99453.09;10523173;28;20182;-81
2021/07/09 15:25:08;;;;;;;8.90;8.10;;;;;;;18.07;100.00;99445.72;10523601;28;20190;-82
2021/07/09 15:30:27;;;;;;;7.53;6.83;;;;;;;18.25;100.00;99453.63;10539059;28;20209;-82
2021/07/09 15:35:46;;;;;;;7.63;7.07;;;;;;;18.66;100.00;99457.91;10537584;28;20226;-82
2021/07/09 15:41:06;;;;;;;8.80;8.20;;;;;;;19.14;100.00;99460.44;10523152;28;20194;-82
2021/07/09 15:46:25;;;;;;;6.43;6.03;;;;;;;19.40;100.00;99448.00;10523688;28;20541;-82
2021/07/09 15:51:44;;;;;;;7.73;7.23;;;;;;;19.13;100.00;99458.88;10537300;28;20672;-82
2021/07/09 15:57:04;;;;;;;6.50;6.17;;;;;;;18.69;100.00;99459.06;10537592;28;20186;-82
2021/07/09 16:02:24;;;;;;;6.43;5.97;;;;;;;18.72;100.00;99456.16;10521848;28;20545;-83
2021/07/09 16:07:42;;;;;;;5.67;5.37;;;;;;;18.66;100.00;99469.06;10538015;28;20173;-83
2021/07/09 16:13:02;;;;;;;6.17;5.70;;;;;;;18.76;100.00;99462.41;10529352;28;20217;-84
2021/07/09 16:18:21;;;;;;;6.00;5.50;;;;;;;18.66;100.00;99459.94;10546213;28;20186;-83
2021/07/09 16:23:44;;;;;;;6.83;6.20;;;;;;;18.64;100.00;99459.59;10544736;28;20182;-84
2021/07/09 16:29:04;;;;;;;6.93;6.43;;;;;;;18.85;100.00;99458.97;10545297;28;20213;-84
2021/07/09 16:34:23;;;;;;;5.70;5.37;;;;;;;18.72;100.00;99464.53;10528896;28;20214;-83
2021/07/09 16:39:43;;;;;;;6.10;5.70;;;;;;;18.71;100.00;99462.97;10530309;28;20185;-84
2021/07/09 16:45:02;;;;;;;8.20;6.20;;;;;;;18.78;100.00;99467.56;10530303;28;20174;-84
2021/07/09 16:50:21;;;;;;;6.57;6.07;;;;;;;18.65;100.00;99472.31;10528428;28;20201;-84
2021/07/09 16:55:40;;;;;;;7.10;6.50;;;;;;;18.57;100.00;99474.53;10523141;28;20175;-85
2021/07/09 17:00:59;;;;;;;7.57;6.97;;;;;;;18.55;100.00;99468.63;10514182;28;20174;-84
2021/07/09 17:06:18;;;;;;;8.70;7.30;;;;;;;18.57;100.00;99482.91;10528262;28;20664;-86
2021/07/09 17:11:37;;;;;;;9.47;6.80;;;;;;;18.55;100.00;99490.91;10528832;28;20633;-85
2021/07/09 17:16:56;;;;;;;7.40;6.90;;;;;;;18.34;100.00;99487.16;10543665;28;20918;-84
2021/07/09 17:22:16;;;;;;;7.47;6.07;;;;;;;18.28;100.00;99492.50;10525847;28;20178;-85
2021/07/09 17:27:35;;;;;;;9.33;6.70;;;;;;;18.22;100.00;99487.91;10541421;28;20599;-84
2021/07/09 17:32:54;;;;;;;7.80;6.13;;;;;;;18.13;100.00;99485.75;10526097;28;20210;-85
2021/07/09 17:38:12;;;;;;;9.17;7.43;;;;;;;18.10;100.00;99503.31;10538652;28;20683;-84
2021/07/09 17:43:31;;;;;;;9.50;8.37;;;;;;;18.07;100.00;99493.06;10527761;28;20185;-84
2021/07/09 17:48:51;;;;;;;7.20;6.50;;;;;;;18.04;100.00;99493.16;10541609;28;20560;-84
2021/07/09 17:54:10;;;;;;;7.73;7.20;;;;;;;18.03;100.00;99492.38;10539279;28;20723;-84
2021/07/09 17:59:29;;;;;;;7.77;7.27;;;;;;;18.09;100.00;99498.22;10513090;28;20186;-84
2021/07/09 18:04:48;;;;;;;9.60;7.10;;;;;;;18.17;100.00;99496.78;10532425;28;20544;-84
2021/07/09 18:10:09;;;;;;;7.90;7.30;;;;;;;18.20;100.00;99507.03;10541537;28;20202;-84
2021/07/09 18:15:29;;;;;;;7.70;7.10;;;;;;;18.23;100.00;99503.41;10526192;28;20186;-85
2021/07/09 18:20:48;;;;;;;7.90;7.30;;;;;;;18.17;100.00;99507.94;10524691;28;20213;-85
2021/07/09 18:26:07;;;;;;;8.77;7.87;;;;;;;18.13;100.00;99513.59;10516470;28;20202;-84
2021/07/09 18:31:30;;;;;;;8.30;7.70;;;;;;;17.92;100.00;99521.72;10522072;28;20206;-83
2021/07/09 18:36:49;;;;;;;8.83;8.13;;;;;;;17.83;100.00;99522.34;10511653;28;20241;-83
2021/07/09 18:42:08;;;;;;;8.03;7.33;;;;;;;17.81;100.00;99521.97;10527189;28;20197;-83
2021/07/09 18:47:27;;;;;;;8.40;7.53;;;;;;;17.73;100.00;99528.19;10540658;28;20177;-84
2021/07/09 18:52:46;;;;;;;8.60;7.70;;;;;;;17.75;100.00;99520.97;10523418;28;20590;-84
2021/07/09 18:58:05;;;;;;;9.00;8.20;;;;;;;17.75;100.00;99514.63;10539879;28;20190;-83
2021/07/09 19:03:24;;;;;;;8.33;7.50;;;;;;;17.63;100.00;99527.25;10534252;28;20260;-83
2021/07/09 19:08:43;;;;;;;8.97;8.10;;;;;;;17.44;100.00;99537.66;10537872;28;20178;-84
2021/07/09 19:14:02;;;;;;;15.20;8.20;;;;;;;17.33;100.00;99543.47;10519329;28;20186;-84
2021/07/09 19:19:22;;;;;;;9.07;8.00;;;;;;;17.23;100.00;99543.69;10514805;28;20553;-83
2021/07/09 19:24:43;;;;;;;9.40;8.53;;;;;;;17.13;100.00;99551.06;10533015;28;20201;-84
2021/07/09 19:30:04;;;;;;;12.97;9.87;;;;;;;17.02;100.00;99558.06;10519229;28;20616;-84
2021/07/09 19:35:26;;;;;;;13.37;9.20;;;;;;;16.96;100.00;99562.56;10518712;28;20568;-83
2021/07/09 19:40:46;;;;;;;15.30;9.40;;;;;;;16.96;100.00;99551.44;10535465;28;20182;-84
2021/07/09 19:46:04;;;;;;;14.93;9.90;;;;;;;16.95;100.00;99552.66;10547018;28;20636;-84
2021/07/09 19:51:23;;;;;;;15.37;9.63;;;;;;;16.90;100.00;99550.41;10529305;28;20225;-83
2021/07/09 19:56:43;;;;;;;11.47;9.97;;;;;;;16.76;100.00;99556.25;10525392;28;20186;-84
2021/07/09 20:02:04;;;;;;;17.60;11.03;;;;;;;16.77;100.00;99561.38;10521888;28;20647;-84
2021/07/09 20:07:24;;;;;;;12.43;9.77;;;;;;;16.86;100.00;99572.72;10521373;28;20587;-86
2021/07/09 20:12:44;;;;;;;11.40;10.20;;;;;;;16.68;100.00;99567.94;10500516;28;20197;-85
2021/07/09 20:18:10;;;;;;;16.60;10.30;;;;;;;16.80;100.00;99563.28;10536858;28;20227;-85
2021/07/09 20:23:29;;;;;;;9.83;8.93;;;;;;;16.69;100.00;99566.75;10544327;28;20186;-85
2021/07/09 20:28:54;;;;;;;11.77;9.03;;;;;;;16.63;100.00;99560.88;10551719;28;20174;-85
2021/07/09 20:34:13;;;;;;;14.47;9.43;;;;;;;16.60;100.00;99561.72;10534633;28;20560;-84
2021/07/09 20:39:32;;;;;;;18.33;10.00;;;;;;;16.41;100.00;99567.28;10551493;28;20178;-84
2021/07/09 20:44:51;;;;;;;11.47;10.27;;;;;;;16.33;100.00;99561.09;10551782;28;20625;-84
2021/07/09 20:50:13;;;;;;;9.93;9.03;;;;;;;16.17;100.00;99560.19;10534372;28;20210;-84
2021/07/09 20:55:33;;;;;;;10.07;9.00;;;;;;;16.03;100.00;99572.31;10544957;28;20182;-84
2021/07/09 21:00:53;;;;;;;12.60;9.33;;;;;;;15.98;100.00;99564.50;10529278;28;20186;-84
2021/07/09 21:06:13;;;;;;;10.90;9.20;;;;;;;16.06;100.00;99563.16;10528400;28;20174;-84
2021/07/09 21:11:32;;;;;;;10.27;9.27;;;;;;;16.03;100.00;99552.91;10544072;28;20206;-85
2021/07/09 21:16:53;;;;;;;15.20;10.70;;;;;;;16.06;100.00;99556.84;10529059;28;20186;-85
2021/07/09 21:22:12;;;;;;;14.00;9.53;;;;;;;16.09;100.00;99558.75;10527938;28;20190;-84
2021/07/09 21:27:31;;;;;;;17.17;8.47;;;;;;;16.06;100.00;99562.38;10543882;28;20208;-85
2021/07/09 21:32:50;;;;;;;17.47;9.40;;;;;;;16.02;100.00;99561.66;10543532;28;20201;-85
2021/07/09 21:38:09;;;;;;;14.40;9.03;;;;;;;15.96;100.00;99560.59;10526518;28;20684;-84
2021/07/09 21:43:29;;;;;;;10.37;9.27;;;;;;;16.25;100.00;99567.97;10528245;28;20178;-84
2021/07/09 21:48:48;;;;;;;11.37;9.73;;;;;;;15.95;100.00;99572.88;10543113;28;20189;-84
2021/07/09 21:54:07;;;;;;;24.93;8.33;;;;;;;15.71;100.00;99565.78;10527171;28;20189;-86
2021/07/09 21:59:27;;;;;;;15.80;9.50;;;;;;;15.58;100.00;99562.03;10527544;28;20178;-85
2021/07/09 22:04:46;;;;;;;11.60;9.13;;;;;;;15.46;100.00;99573.69;10539711;28;20178;-85
2021/07/09 22:10:06;;;;;;;11.53;9.43;;;;;;;15.35;100.00;99570.28;10542264;28;20233;-85
2021/07/09 22:15:26;;;;;;;17.60;10.13;;;;;;;15.39;100.00;99576.59;10526718;28;20224;-84
2021/07/09 22:20:45;;;;;;;10.87;9.73;;;;;;;15.41;100.00;99584.47;10525382;28;20634;-84
2021/07/09 22:26:07;;;;;;;10.10;8.27;;;;;;;15.17;100.00;99583.63;10525981;28;20214;-84
2021/07/09 22:31:34;;;;;;;11.67;9.93;;;;;;;15.13;100.00;99581.28;10541075;28;20206;-84
2021/07/09 22:36:55;;;;;;;15.87;10.83;;;;;;;15.13;100.00;99579.34;10524403;28;20218;-84
2021/07/09 22:42:14;;;;;;;11.60;9.93;;;;;;;15.22;100.00;99560.97;10541213;28;20178;-84
2021/07/09 22:47:34;;;;;;;13.30;9.70;;;;;;;14.89;100.00;99560.25;10525083;28;20193;-85
2021/07/09 22:52:56;;;;;;;17.53;9.47;;;;;;;14.73;100.00;99555.34;10538888;28;20234;-85
2021/07/09 22:58:15;;;;;;;10.87;9.40;;;;;;;14.61;100.00;99568.94;10524727;28;20616;-84
2021/07/09 23:03:34;;;;;;;10.33;9.27;;;;;;;14.48;100.00;99573.44;10540302;28;20170;-84
2021/07/09 23:08:53;;;;;;;15.10;9.57;;;;;;;14.44;100.00;99576.25;10524099;28;20178;-85
2021/07/09 23:14:13;;;;;;;17.23;9.67;;;;;;;14.40;100.00;99567.22;10524516;28;20182;-84
2021/07/09 23:19:31;;;;;;;17.87;9.33;;;;;;;14.27;100.00;99579.22;10523032;28;20189;-84
2021/07/09 23:24:51;;;;;;;10.20;9.03;;;;;;;14.16;100.00;99567.47;10524151;28;20189;-84
2021/07/09 23:30:12;;;;;;;12.17;10.70;;;;;;;14.18;100.00;99573.38;10539075;28;20202;-85
2021/07/09 23:35:31;;;;;;;17.43;10.53;;;;;;;14.06;100.00;99565.56;10522509;28;20256;-84
2021/07/09 23:40:50;;;;;;;14.03;9.50;;;;;;;14.00;100.00;99567.19;10523769;28;20166;-84
2021/07/09 23:46:09;;;;;;;25.87;11.27;;;;;;;13.99;100.00;99565.63;10523796;28;20632;-84
2021/07/09 23:51:28;;;;;;;22.20;10.80;;;;;;;13.94;100.00;99548.69;10537088;28;20206;-84
2021/07/09 23:56:47;;;;;;;20.30;11.07;;;;;;;13.89;100.00;99549.16;10522796;28;20227;-84
